This London Heathrow Airport weather forecast is generated by the Met Office Weather Widget

AirNav RadarBox - Metar Weather
  London Heathrow Metar Weather
 

METAR = EGLL 020820Z 14006KT 090V200 9999 -RA BKN044 17/14 Q1003 NOSIG

STATION........ EGLL
OBSERVED....... Sat Aug 2, 09:20 BST
NOW............ Sat Aug 2, 09:33 BST
AGE............ 13 min ago
WIND........... SE at 7 mph
VISIBILITY..... 16 miles
CONDITIONS..... light rain
CLOUDS......... mostly cloudy
TEMP........... 63°F (17°C)
DEWPT.......... 57°F (14°C)
HUMIDITY....... 83%
BAROMETER...... 1003 hPa (29.62 in Hg)

Sat Aug 02 2014, sunrise time : 04:32
Sat Aug 02 2014, sunset time : 19:43